sensor_id;sensor_type;location;lat;lon;timestamp;pressure;altitude;pressure_sealevel;temperature
31921;BMP280;66485;52.128;4.436;2023-02-01T00:01:23;102088.75;;;16.76
31921;BMP280;66485;52.128;4.436;2023-02-01T00:03:48;102094.63;;;16.85
31921;BMP280;66485;52.128;4.436;2023-02-01T00:06:13;102085.41;;;16.90
31921;BMP280;66485;52.128;4.436;2023-02-01T00:08:39;102085.41;;;16.90
31921;BMP280;66485;52.128;4.436;2023-02-01T00:11:09;102081.56;;;16.91
31921;BMP280;66485;52.128;4.436;2023-02-01T00:13:36;102085.47;;;16.93
31921;BMP280;66485;52.128;4.436;2023-02-01T00:16:09;102085.47;;;16.93
31921;BMP280;66485;52.128;4.436;2023-02-01T00:18:35;102097.03;;;16.90
31921;BMP280;66485;52.128;4.436;2023-02-01T00:21:01;102105.47;;;16.85
31921;BMP280;66485;52.128;4.436;2023-02-01T00:23:26;102105.47;;;16.85
31921;BMP280;66485;52.128;4.436;2023-02-01T00:25:53;102083.44;;;16.83
31921;BMP280;66485;52.128;4.436;2023-02-01T00:28:18;102090.00;;;16.82
31921;BMP280;66485;52.128;4.436;2023-02-01T00:30:43;102096.97;;;16.83
31921;BMP280;66485;52.128;4.436;2023-02-01T00:33:09;102092.22;;;16.77
31921;BMP280;66485;52.128;4.436;2023-02-01T00:35:35;102092.22;;;16.77
31921;BMP280;66485;52.128;4.436;2023-02-01T00:38:00;102084.47;;;16.72
31921;BMP280;66485;52.128;4.436;2023-02-01T00:40:26;102091.44;;;16.76
31921;BMP280;66485;52.128;4.436;2023-02-01T00:42:51;102094.88;;;16.70
31921;BMP280;66485;52.128;4.436;2023-02-01T00:45:17;102089.03;;;16.67
31921;BMP280;66485;52.128;4.436;2023-02-01T00:47:43;102068.13;;;16.64
31921;BMP280;66485;52.128;4.436;2023-02-01T00:50:09;102068.91;;;16.61
31921;BMP280;66485;52.128;4.436;2023-02-01T00:52:34;102072.69;;;16.57
31921;BMP280;66485;52.128;4.436;2023-02-01T00:54:59;102062.59;;;16.54
31921;BMP280;66485;52.128;4.436;2023-02-01T00:57:25;102056.06;;;16.55
31921;BMP280;66485;52.128;4.436;2023-02-01T00:59:50;102061.09;;;16.56
31921;BMP280;66485;52.128;4.436;2023-02-01T01:02:15;102065.84;;;16.66
31921;BMP280;66485;52.128;4.436;2023-02-01T01:04:41;102067.81;;;16.70
31921;BMP280;66485;52.128;4.436;2023-02-01T01:07:06;102075.19;;;16.73
31921;BMP280;66485;52.128;4.436;2023-02-01T01:09:31;102061.31;;;16.74
31921;BMP280;66485;52.128;4.436;2023-02-01T01:11:57;102061.31;;;16.74
31921;BMP280;66485;52.128;4.436;2023-02-01T01:14:27;102084.53;;;16.79
31921;BMP280;66485;52.128;4.436;2023-02-01T01:16:52;102060.19;;;16.79
31921;BMP280;66485;52.128;4.436;2023-02-01T01:19:18;102057.41;;;16.75
31921;BMP280;66485;52.128;4.436;2023-02-01T01:21:43;102057.41;;;16.75
31921;BMP280;66485;52.128;4.436;2023-02-01T01:24:08;102070.94;;;16.75
31921;BMP280;66485;52.128;4.436;2023-02-01T01:26:34;102080.59;;;16.73
31921;BMP280;66485;52.128;4.436;2023-02-01T01:28:59;102072.78;;;16.64
31921;BMP280;66485;52.128;4.436;2023-02-01T01:31:25;102065.84;;;16.66
31921;BMP280;66485;52.128;4.436;2023-02-01T01:33:53;102068.91;;;16.65
31921;BMP280;66485;52.128;4.436;2023-02-01T01:36:19;102068.91;;;16.65
31921;BMP280;66485;52.128;4.436;2023-02-01T01:38:45;102074.19;;;16.51
31921;BMP280;66485;52.128;4.436;2023-02-01T01:41:17;102072.69;;;16.57
31921;BMP280;66485;52.128;4.436;2023-02-01T01:47:02;102061.81;;;16.50
31921;BMP280;66485;52.128;4.436;2023-02-01T01:49:28;102056.41;;;16.50
31921;BMP280;66485;52.128;4.436;2023-02-01T01:52:01;102057.06;;;16.40
31921;BMP280;66485;52.128;4.436;2023-02-01T01:54:31;102071.13;;;16.56
31921;BMP280;66485;52.128;4.436;2023-02-01T01:57:01;102061.16;;;16.60
31921;BMP280;66485;52.128;4.436;2023-02-01T01:59:29;102066.63;;;16.67
31921;BMP280;66485;52.128;4.436;2023-02-01T02:01:56;102049.19;;;16.64
31921;BMP280;66485;52.128;4.436;2023-02-01T02:04:22;102046.53;;;16.68
31921;BMP280;66485;52.128;4.436;2023-02-01T02:06:55;102046.53;;;16.68
31921;BMP280;66485;52.128;4.436;2023-02-01T02:09:21;102044.97;;;16.67
31921;BMP280;66485;52.128;4.436;2023-02-01T02:11:47;102044.97;;;16.67
31921;BMP280;66485;52.128;4.436;2023-02-01T02:14:15;102039.16;;;16.65
31921;BMP280;66485;52.128;4.436;2023-02-01T02:25:11;102045.13;;;16.81
31921;BMP280;66485;52.128;4.436;2023-02-01T02:28:08;102056.38;;;16.83
31921;BMP280;66485;52.128;4.436;2023-02-01T02:33:45;102050.94;;;16.83
31921;BMP280;66485;52.128;4.436;2023-02-01T02:36:16;102040.09;;;16.80
31921;BMP280;66485;52.128;4.436;2023-02-01T02:50:50;102019.53;;;16.72
31921;BMP280;66485;52.128;4.436;2023-02-01T02:53:44;102018.38;;;16.69
31921;BMP280;66485;52.128;4.436;2023-02-01T02:56:30;102005.53;;;16.66
31921;BMP280;66485;52.128;4.436;2023-02-01T02:59:17;101997.06;;;16.67
31921;BMP280;66485;52.128;4.436;2023-02-01T03:02:03;102010.94;;;16.59
31921;BMP280;66485;52.128;4.436;2023-02-01T03:04:52;102000.81;;;16.56
31921;BMP280;66485;52.128;4.436;2023-02-01T03:07:53;101987.72;;;16.58
31921;BMP280;66485;52.128;4.436;2023-02-01T03:10:57;102010.84;;;16.55
31921;BMP280;66485;52.128;4.436;2023-02-01T03:13:38;101992.38;;;16.61
31921;BMP280;66485;52.128;4.436;2023-02-01T03:18:52;102008.66;;;16.68
31921;BMP280;66485;52.128;4.436;2023-02-01T03:21:31;102006.38;;;16.70
31921;BMP280;66485;52.128;4.436;2023-02-01T03:24:01;101990.97;;;16.74
31921;BMP280;66485;52.128;4.436;2023-02-01T03:26:29;102011.78;;;16.70
31921;BMP280;66485;52.128;4.436;2023-02-01T03:29:03;102000.22;;;16.73
31921;BMP280;66485;52.128;4.436;2023-02-01T03:31:30;101995.13;;;16.68
31921;BMP280;66485;52.128;4.436;2023-02-01T03:33:57;101991.63;;;16.64
31921;BMP280;66485;52.128;4.436;2023-02-01T03:36:30;101991.63;;;16.64
31921;BMP280;66485;52.128;4.436;2023-02-01T03:39:03;101980.00;;;16.60
31921;BMP280;66485;52.128;4.436;2023-02-01T03:41:50;101996.38;;;16.74
31921;BMP280;66485;52.128;4.436;2023-02-01T03:46:52;101982.84;;;16.78
31921;BMP280;66485;52.128;4.436;2023-02-01T03:49:41;101983.25;;;16.80
31921;BMP280;66485;52.128;4.436;2023-02-01T03:52:12;101983.25;;;16.80
31921;BMP280;66485;52.128;4.436;2023-02-01T03:54:39;102001.44;;;16.79
31921;BMP280;66485;52.128;4.436;2023-02-01T03:57:11;102001.44;;;16.79
31921;BMP280;66485;52.128;4.436;2023-02-01T03:59:39;101999.88;;;16.78
31921;BMP280;66485;52.128;4.436;2023-02-01T04:02:06;101997.94;;;16.79
31921;BMP280;66485;52.128;4.436;2023-02-01T04:04:31;101997.94;;;16.79
31921;BMP280;66485;52.128;4.436;2023-02-01T04:06:56;101989.41;;;16.73
31921;BMP280;66485;52.128;4.436;2023-02-01T04:09:22;101997.09;;;16.71
31921;BMP280;66485;52.128;4.436;2023-02-01T04:11:47;102020.63;;;16.67
31921;BMP280;66485;52.128;4.436;2023-02-01T04:14:12;102017.13;;;16.63
31921;BMP280;66485;52.128;4.436;2023-02-01T04:16:38;102007.44;;;16.58
31921;BMP280;66485;52.128;4.436;2023-02-01T04:19:03;102007.44;;;16.58
31921;BMP280;66485;52.128;4.436;2023-02-01T04:21:29;101993.13;;;16.58
31921;BMP280;66485;52.128;4.436;2023-02-01T04:23:54;101995.38;;;16.52
31921;BMP280;66485;52.128;4.436;2023-02-01T04:26:20;101997.22;;;16.45
31921;BMP280;66485;52.128;4.436;2023-02-01T04:28:46;101997.22;;;16.45
31921;BMP280;66485;52.128;4.436;2023-02-01T04:31:13;101990.66;;;16.46
31921;BMP280;66485;52.128;4.436;2023-02-01T04:33:39;101992.56;;;16.42
31921;BMP280;66485;52.128;4.436;2023-02-01T04:36:04;102000.41;;;16.54
31921;BMP280;66485;52.128;4.436;2023-02-01T04:38:29;101987.28;;;16.56
31921;BMP280;66485;52.128;4.436;2023-02-01T04:40:57;101992.38;;;16.64
31921;BMP280;66485;52.128;4.436;2023-02-01T04:43:22;101987.81;;;16.69
31921;BMP280;66485;52.128;4.436;2023-02-01T04:45:48;101980.81;;;16.64
31921;BMP280;66485;52.128;4.436;2023-02-01T04:48:14;101986.28;;;16.71
31921;BMP280;66485;52.128;4.436;2023-02-01T04:50:40;101986.28;;;16.71
31921;BMP280;66485;52.128;4.436;2023-02-01T04:53:05;101994.69;;;16.59
31921;BMP280;66485;52.128;4.436;2023-02-01T04:55:31;101994.69;;;16.59
31921;BMP280;66485;52.128;4.436;2023-02-01T04:57:56;101969.94;;;16.60
31921;BMP280;66485;52.128;4.436;2023-02-01T05:00:22;101971.84;;;16.56
31921;BMP280;66485;52.128;4.436;2023-02-01T05:02:47;101971.84;;;16.56
31921;BMP280;66485;52.128;4.436;2023-02-01T05:05:13;101978.84;;;16.64
31921;BMP280;66485;52.128;4.436;2023-02-01T05:07:38;101990.53;;;16.69
31921;BMP280;66485;52.128;4.436;2023-02-01T05:10:03;101979.31;;;16.70
31921;BMP280;66485;52.128;4.436;2023-02-01T05:12:29;101990.53;;;16.72
31921;BMP280;66485;52.128;4.436;2023-02-01T05:15:13;101990.19;;;16.77
31921;BMP280;66485;52.128;4.436;2023-02-01T05:17:38;101990.19;;;16.77
31921;BMP280;66485;52.128;4.436;2023-02-01T05:20:06;101990.53;;;16.72
31921;BMP280;66485;52.128;4.436;2023-02-01T05:22:31;102030.34;;;16.72
31921;BMP280;66485;52.128;4.436;2023-02-01T05:24:56;102009.06;;;16.70
31921;BMP280;66485;52.128;4.436;2023-02-01T05:27:22;102002.03;;;16.62
31921;BMP280;66485;52.128;4.436;2023-02-01T05:29:47;102010.16;;;16.58
31921;BMP280;66485;52.128;4.436;2023-02-01T05:32:12;102007.47;;;16.65
31921;BMP280;66485;52.128;4.436;2023-02-01T05:34:38;102010.94;;;16.59
31921;BMP280;66485;52.128;4.436;2023-02-01T05:37:03;102014.69;;;16.51
31921;BMP280;66485;52.128;4.436;2023-02-01T05:39:28;102008.16;;;16.55
31921;BMP280;66485;52.128;4.436;2023-02-01T05:41:53;102010.47;;;16.53
31921;BMP280;66485;52.128;4.436;2023-02-01T05:44:19;101991.03;;;16.44
31921;BMP280;66485;52.128;4.436;2023-02-01T05:46:44;101985.25;;;16.46
31921;BMP280;66485;52.128;4.436;2023-02-01T05:49:09;101985.25;;;16.46
31921;BMP280;66485;52.128;4.436;2023-02-01T05:51:35;102004.97;;;16.46
31921;BMP280;66485;52.128;4.436;2023-02-01T05:54:00;102004.97;;;16.46
31921;BMP280;66485;52.128;4.436;2023-02-01T05:56:25;102004.97;;;16.46
31921;BMP280;66485;52.128;4.436;2023-02-01T05:58:51;102001.59;;;16.56
31921;BMP280;66485;52.128;4.436;2023-02-01T06:01:16;102013.19;;;16.57
31921;BMP280;66485;52.128;4.436;2023-02-01T06:03:42;102009.78;;;16.63
31921;BMP280;66485;52.128;4.436;2023-02-01T06:06:07;102009.78;;;16.63
31921;BMP280;66485;52.128;4.436;2023-02-01T06:08:32;102014.44;;;16.63
31921;BMP280;66485;52.128;4.436;2023-02-01T06:10:59;102010.94;;;16.62
31921;BMP280;66485;52.128;4.436;2023-02-01T06:13:24;102003.19;;;16.61
31921;BMP280;66485;52.128;4.436;2023-02-01T06:15:50;102019.78;;;16.59
31921;BMP280;66485;52.128;4.436;2023-02-01T06:18:16;102012.34;;;16.49
31921;BMP280;66485;52.128;4.436;2023-02-01T06:20:42;102012.34;;;16.49
31921;BMP280;66485;52.128;4.436;2023-02-01T06:23:08;102013.66;;;16.62
31921;BMP280;66485;52.128;4.436;2023-02-01T06:25:33;102013.66;;;16.66
31921;BMP280;66485;52.128;4.436;2023-02-01T06:28:01;102024.53;;;16.70
31921;BMP280;66485;52.128;4.436;2023-02-01T06:30:27;102025.72;;;16.72
31921;BMP280;66485;52.128;4.436;2023-02-01T06:32:52;102035.00;;;16.75
31921;BMP280;66485;52.128;4.436;2023-02-01T06:35:18;102035.78;;;16.75
31921;BMP280;66485;52.128;4.436;2023-02-01T06:37:44;102018.00;;;16.74
31921;BMP280;66485;52.128;4.436;2023-02-01T06:40:10;102018.00;;;16.74
31921;BMP280;66485;52.128;4.436;2023-02-01T06:42:35;102017.59;;;16.72
31921;BMP280;66485;52.128;4.436;2023-02-01T06:45:00;102019.47;;;16.68
31921;BMP280;66485;52.128;4.436;2023-02-01T06:47:26;102010.53;;;16.60
31921;BMP280;66485;52.128;4.436;2023-02-01T06:49:51;102010.16;;;16.58
31921;BMP280;66485;52.128;4.436;2023-02-01T06:52:16;102016.72;;;16.61
31921;BMP280;66485;52.128;4.436;2023-02-01T06:54:42;102007.00;;;16.56
31921;BMP280;66485;52.128;4.436;2023-02-01T06:57:07;102013.63;;;16.59
31921;BMP280;66485;52.128;4.436;2023-02-01T06:59:32;102024.34;;;16.52
31921;BMP280;66485;52.128;4.436;2023-02-01T07:01:57;102018.94;;;16.52
31921;BMP280;66485;52.128;4.436;2023-02-01T07:04:23;102018.94;;;16.52
31921;BMP280;66485;52.128;4.436;2023-02-01T07:06:48;102016.97;;;16.49
31921;BMP280;66485;52.128;4.436;2023-02-01T07:09:13;102016.91;;;16.42
31921;BMP280;66485;52.128;4.436;2023-02-01T07:11:39;102016.91;;;16.42
31921;BMP280;66485;52.128;4.436;2023-02-01T07:14:08;102019.75;;;16.56
31921;BMP280;66485;52.128;4.436;2023-02-01T07:16:34;102017.88;;;16.60
31921;BMP280;66485;52.128;4.436;2023-02-01T07:18:59;102017.88;;;16.60
31921;BMP280;66485;52.128;4.436;2023-02-01T07:21:24;102014.03;;;16.64
31921;BMP280;66485;52.128;4.436;2023-02-01T07:23:50;102016.34;;;16.59
31921;BMP280;66485;52.128;4.436;2023-02-01T07:26:15;102015.97;;;16.64
31921;BMP280;66485;52.128;4.436;2023-02-01T07:28:41;102015.97;;;16.64
31921;BMP280;66485;52.128;4.436;2023-02-01T07:31:17;102026.81;;;16.64
31921;BMP280;66485;52.128;4.436;2023-02-01T07:33:44;102027.84;;;16.56
31921;BMP280;66485;52.128;4.436;2023-02-01T07:36:15;102027.84;;;16.56
31921;BMP280;66485;52.128;4.436;2023-02-01T07:38:40;102038.41;;;16.68
31921;BMP280;66485;52.128;4.436;2023-02-01T07:41:06;102038.09;;;16.73
31921;BMP280;66485;52.128;4.436;2023-02-01T07:43:34;102047.00;;;16.74
31921;BMP280;66485;52.128;4.436;2023-02-01T07:45:59;102047.00;;;16.74
31921;BMP280;66485;52.128;4.436;2023-02-01T07:48:26;102054.03;;;16.82
31921;BMP280;66485;52.128;4.436;2023-02-01T07:51:02;102054.03;;;16.82
31921;BMP280;66485;52.128;4.436;2023-02-01T07:53:29;102055.16;;;16.81
31921;BMP280;66485;52.128;4.436;2023-02-01T07:55:55;102046.66;;;16.79
31921;BMP280;66485;52.128;4.436;2023-02-01T07:58:22;102046.66;;;16.79
31921;BMP280;66485;52.128;4.436;2023-02-01T08:00:47;102053.19;;;16.78
31921;BMP280;66485;52.128;4.436;2023-02-01T08:03:31;102045.88;;;16.78
31921;BMP280;66485;52.128;4.436;2023-02-01T08:05:56;102058.19;;;16.76
31921;BMP280;66485;52.128;4.436;2023-02-01T08:08:22;102058.19;;;16.76
31921;BMP280;66485;52.128;4.436;2023-02-01T08:10:48;102045.06;;;16.74
31921;BMP280;66485;52.128;4.436;2023-02-01T08:13:13;102045.06;;;16.74
31921;BMP280;66485;52.128;4.436;2023-02-01T08:15:39;102030.72;;;16.70
31921;BMP280;66485;52.128;4.436;2023-02-01T08:18:04;102050.84;;;16.69
31921;BMP280;66485;52.128;4.436;2023-02-01T08:20:30;102050.84;;;16.69
31921;BMP280;66485;52.128;4.436;2023-02-01T08:22:55;102021.81;;;16.70
31921;BMP280;66485;52.128;4.436;2023-02-01T08:25:21;102015.97;;;16.64
31921;BMP280;66485;52.128;4.436;2023-02-01T08:27:47;102019.06;;;16.66
31921;BMP280;66485;52.128;4.436;2023-02-01T08:30:12;102013.28;;;16.64
31921;BMP280;66485;52.128;4.436;2023-02-01T08:32:38;102024.16;;;16.75
31921;BMP280;66485;52.128;4.436;2023-02-01T08:35:04;102039.72;;;16.81
31921;BMP280;66485;52.128;4.436;2023-02-01T08:37:29;102042.06;;;16.86
31921;BMP280;66485;52.128;4.436;2023-02-01T08:39:55;102024.28;;;16.85
31921;BMP280;66485;52.128;4.436;2023-02-01T08:42:20;102032.81;;;16.87
31921;BMP280;66485;52.128;4.436;2023-02-01T08:45:05;102036.69;;;16.90
31921;BMP280;66485;52.128;4.436;2023-02-01T08:47:30;102036.69;;;16.90
31921;BMP280;66485;52.128;4.436;2023-02-01T08:49:56;102015.06;;;16.90
31921;BMP280;66485;52.128;4.436;2023-02-01T08:52:21;102007.34;;;16.92
31921;BMP280;66485;52.128;4.436;2023-02-01T08:54:46;102007.34;;;16.92
31921;BMP280;66485;52.128;4.436;2023-02-01T08:57:12;102009.25;;;16.91
31921;BMP280;66485;52.128;4.436;2023-02-01T08:59:38;102011.63;;;16.96
31921;BMP280;66485;52.128;4.436;2023-02-01T09:02:03;101994.59;;;16.92
31921;BMP280;66485;52.128;4.436;2023-02-01T09:04:29;101994.59;;;16.92
31921;BMP280;66485;52.128;4.436;2023-02-01T09:06:54;101994.13;;;16.87
31921;BMP280;66485;52.128;4.436;2023-02-01T09:09:21;102012.72;;;16.88
31921;BMP280;66485;52.128;4.436;2023-02-01T09:11:47;102012.72;;;16.88
31921;BMP280;66485;52.128;4.436;2023-02-01T09:14:12;102004.94;;;16.83
31921;BMP280;66485;52.128;4.436;2023-02-01T09:16:38;101999.09;;;16.78
31921;BMP280;66485;52.128;4.436;2023-02-01T09:19:03;101991.78;;;16.82
31921;BMP280;66485;52.128;4.436;2023-02-01T09:21:29;102006.88;;;16.79
31921;BMP280;66485;52.128;4.436;2023-02-01T09:23:54;101990.66;;;16.86
31921;BMP280;66485;52.128;4.436;2023-02-01T09:26:19;102011.97;;;16.95
31921;BMP280;66485;52.128;4.436;2023-02-01T09:28:45;102017.47;;;17.02
31921;BMP280;66485;52.128;4.436;2023-02-01T09:31:10;102017.47;;;17.02
31921;BMP280;66485;52.128;4.436;2023-02-01T09:33:35;102015.97;;;17.05
31921;BMP280;66485;52.128;4.436;2023-02-01T09:36:03;102018.69;;;17.08
31921;BMP280;66485;52.128;4.436;2023-02-01T09:38:30;102018.69;;;17.08
31921;BMP280;66485;52.128;4.436;2023-02-01T09:40:56;102036.44;;;17.06
31921;BMP280;66485;52.128;4.436;2023-02-01T09:43:39;102029.88;;;17.07
31921;BMP280;66485;52.128;4.436;2023-02-01T09:46:28;102029.88;;;17.07
31921;BMP280;66485;52.128;4.436;2023-02-01T09:48:57;102021.69;;;16.99
31921;BMP280;66485;52.128;4.436;2023-02-01T09:51:36;102038.31;;;16.98
31921;BMP280;66485;52.128;4.436;2023-02-01T09:54:06;102029.00;;;16.95
31921;BMP280;66485;52.128;4.436;2023-02-01T09:56:46;102026.78;;;17.08
31921;BMP280;66485;52.128;4.436;2023-02-01T10:01:56;102030.13;;;17.42
31921;BMP280;66485;52.128;4.436;2023-02-01T10:04:22;102030.63;;;17.62
31921;BMP280;66485;52.128;4.436;2023-02-01T10:26:16;102029.81;;;18.98
31921;BMP280;66485;52.128;4.436;2023-02-01T10:28:43;102004.97;;;18.99
31921;BMP280;66485;52.128;4.436;2023-02-01T10:31:11;102019.72;;;19.05
31921;BMP280;66485;52.128;4.436;2023-02-01T10:33:59;102000.31;;;19.03
31921;BMP280;66485;52.128;4.436;2023-02-01T10:36:40;102013.13;;;19.06
31921;BMP280;66485;52.128;4.436;2023-02-01T10:39:06;102033.66;;;19.14
31921;BMP280;66485;52.128;4.436;2023-02-01T10:41:34;102032.09;;;19.27
31921;BMP280;66485;52.128;4.436;2023-02-01T10:44:03;102015.81;;;19.20
31921;BMP280;66485;52.128;4.436;2023-02-01T10:46:31;102020.84;;;19.22
31921;BMP280;66485;52.128;4.436;2023-02-01T10:48:58;102020.84;;;19.22
31921;BMP280;66485;52.128;4.436;2023-02-01T10:51:37;102028.63;;;19.23
31921;BMP280;66485;52.128;4.436;2023-02-01T10:54:18;102014.25;;;19.19
31921;BMP280;66485;52.128;4.436;2023-02-01T10:56:46;102014.25;;;19.19
31921;BMP280;66485;52.128;4.436;2023-02-01T10:59:18;102013.09;;;19.17
31921;BMP280;66485;52.128;4.436;2023-02-01T11:01:46;102012.69;;;19.22
31921;BMP280;66485;52.128;4.436;2023-02-01T11:04:17;102004.94;;;19.20
31921;BMP280;66485;52.128;4.436;2023-02-01T11:06:46;102004.94;;;19.20
31921;BMP280;66485;52.128;4.436;2023-02-01T11:09:21;102002.59;;;19.15
31921;BMP280;66485;52.128;4.436;2023-02-01T11:14:17;102014.25;;;19.23
31921;BMP280;66485;52.128;4.436;2023-02-01T11:16:48;101997.94;;;19.19
31921;BMP280;66485;52.128;4.436;2023-02-01T11:19:16;102011.94;;;19.21
31921;BMP280;66485;52.128;4.436;2023-02-01T11:21:43;102011.94;;;19.21
31921;BMP280;66485;52.128;4.436;2023-02-01T11:24:23;102002.22;;;19.20
31921;BMP280;66485;52.128;4.436;2023-02-01T11:26:50;102023.19;;;19.23
31921;BMP280;66485;52.128;4.436;2023-02-01T11:29:18;102023.19;;;19.23
31921;BMP280;66485;52.128;4.436;2023-02-01T11:31:55;102022.03;;;19.28
31921;BMP280;66485;52.128;4.436;2023-02-01T11:34:24;102008.78;;;19.26
31921;BMP280;66485;52.128;4.436;2023-02-01T11:36:50;102005.31;;;19.26
31921;BMP280;66485;52.128;4.436;2023-02-01T11:39:25;102000.28;;;19.28
31921;BMP280;66485;52.128;4.436;2023-02-01T11:42:16;102005.72;;;19.21
31921;BMP280;66485;52.128;4.436;2023-02-01T11:44:44;102005.72;;;19.21
31921;BMP280;66485;52.128;4.436;2023-02-01T11:47:28;102010.78;;;19.08
31921;BMP280;66485;52.128;4.436;2023-02-01T11:49:57;101999.53;;;19.13
31921;BMP280;66485;52.128;4.436;2023-02-01T11:58:26;102012.31;;;19.20
31921;BMP280;66485;52.128;4.436;2023-02-01T12:04:18;102002.63;;;19.19
31921;BMP280;66485;52.128;4.436;2023-02-01T12:06:56;102018.16;;;19.18
31921;BMP280;66485;52.128;4.436;2023-02-01T12:12:46;101985.56;;;19.18
31921;BMP280;66485;52.128;4.436;2023-02-01T12:15:22;101978.56;;;19.14
31921;BMP280;66485;52.128;4.436;2023-02-01T12:20:39;101982.81;;;19.33
31921;BMP280;66485;52.128;4.436;2023-02-01T12:26:08;101985.53;;;19.33
31921;BMP280;66485;52.128;4.436;2023-02-01T12:28:54;101977.75;;;19.27
31921;BMP280;66485;52.128;4.436;2023-02-01T12:34:23;101973.88;;;19.25
31921;BMP280;66485;52.128;4.436;2023-02-01T12:42:27;101985.09;;;19.45
31921;BMP280;66485;52.128;4.436;2023-02-01T12:45:10;101972.69;;;19.40
31921;BMP280;66485;52.128;4.436;2023-02-01T12:47:54;101968.75;;;19.48
31921;BMP280;66485;52.128;4.436;2023-02-01T12:50:25;101970.69;;;19.48
31921;BMP280;66485;52.128;4.436;2023-02-01T12:52:54;101970.69;;;19.48
31921;BMP280;66485;52.128;4.436;2023-02-01T12:55:36;101979.22;;;19.53
31921;BMP280;66485;52.128;4.436;2023-02-01T12:58:22;101973.75;;;19.57
31921;BMP280;66485;52.128;4.436;2023-02-01T13:00:54;101968.34;;;19.53
31921;BMP280;66485;52.128;4.436;2023-02-01T13:04:06;101968.34;;;19.53
31921;BMP280;66485;52.128;4.436;2023-02-01T13:06:28;101979.88;;;19.82
31921;BMP280;66485;52.128;4.436;2023-02-01T13:09:41;101981.06;;;19.70
31921;BMP280;66485;52.128;4.436;2023-02-01T13:12:19;101968.69;;;19.66
31921;BMP280;66485;52.128;4.436;2023-02-01T13:14:59;101974.91;;;19.66
31921;BMP280;66485;52.128;4.436;2023-02-01T13:17:28;101974.91;;;19.66
31921;BMP280;66485;52.128;4.436;2023-02-01T13:20:05;101980.38;;;19.63
31921;BMP280;66485;52.128;4.436;2023-02-01T13:22:39;101980.38;;;19.63
31921;BMP280;66485;52.128;4.436;2023-02-01T13:27:47;101994.75;;;19.53
31921;BMP280;66485;52.128;4.436;2023-02-01T13:30:27;101994.75;;;19.53
31921;BMP280;66485;52.128;4.436;2023-02-01T13:41:27;101981.91;;;19.60
31921;BMP280;66485;52.128;4.436;2023-02-01T13:43:58;101981.91;;;19.60
31921;BMP280;66485;52.128;4.436;2023-02-01T13:46:24;101980.34;;;19.66
31921;BMP280;66485;52.128;4.436;2023-02-01T13:48:53;101969.50;;;19.59
31921;BMP280;66485;52.128;4.436;2023-02-01T13:51:41;101969.50;;;19.59
31921;BMP280;66485;52.128;4.436;2023-02-01T13:54:27;101971.81;;;19.57
31921;BMP280;66485;52.128;4.436;2023-02-01T13:56:53;101971.81;;;19.57
31921;BMP280;66485;52.128;4.436;2023-02-01T14:13:34;101955.84;;;19.74
31921;BMP280;66485;52.128;4.436;2023-02-01T14:29:23;101963.53;;;19.86
31921;BMP280;66485;52.128;4.436;2023-02-01T14:32:05;101963.53;;;19.86
31921;BMP280;66485;52.128;4.436;2023-02-01T14:36:59;101967.06;;;19.83
31921;BMP280;66485;52.128;4.436;2023-02-01T14:39:35;101979.47;;;19.84
31921;BMP280;66485;52.128;4.436;2023-02-01T14:50:33;101978.31;;;19.85
31921;BMP280;66485;52.128;4.436;2023-02-01T14:58:06;101981.81;;;19.78
31921;BMP280;66485;52.128;4.436;2023-02-01T15:00:35;101977.94;;;19.83
31921;BMP280;66485;52.128;4.436;2023-02-01T15:06:00;101989.19;;;19.85
31921;BMP280;66485;52.128;4.436;2023-02-01T15:08:32;101991.88;;;19.88
31921;BMP280;66485;52.128;4.436;2023-02-01T15:11:00;101991.88;;;19.88
31921;BMP280;66485;52.128;4.436;2023-02-01T15:13:28;101989.97;;;19.82
31921;BMP280;66485;52.128;4.436;2023-02-01T15:16:14;102000.06;;;19.81
31921;BMP280;66485;52.128;4.436;2023-02-01T15:18:40;102000.06;;;19.81
31921;BMP280;66485;52.128;4.436;2023-02-01T15:21:13;101990.31;;;19.87
31921;BMP280;66485;52.128;4.436;2023-02-01T15:23:40;102005.50;;;19.85
31921;BMP280;66485;52.128;4.436;2023-02-01T15:26:05;102005.50;;;19.85
31921;BMP280;66485;52.128;4.436;2023-02-01T15:28:30;102005.53;;;19.70
31921;BMP280;66485;52.128;4.436;2023-02-01T15:31:00;102005.53;;;19.70
31921;BMP280;66485;52.128;4.436;2023-02-01T15:33:27;102000.16;;;19.56
31921;BMP280;66485;52.128;4.436;2023-02-01T15:35:54;102013.41;;;19.51
31921;BMP280;66485;52.128;4.436;2023-02-01T15:41:11;102010.34;;;19.42
31921;BMP280;66485;52.128;4.436;2023-02-01T15:44:03;102009.53;;;19.38
31921;BMP280;66485;52.128;4.436;2023-02-01T15:46:33;102009.16;;;19.36
31921;BMP280;66485;52.128;4.436;2023-02-01T15:49:00;102015.00;;;19.34
31921;BMP280;66485;52.128;4.436;2023-02-01T15:51:28;102000.63;;;19.33
31921;BMP280;66485;52.128;4.436;2023-02-01T15:54:06;102000.63;;;19.33
31921;BMP280;66485;52.128;4.436;2023-02-01T15:56:40;102007.28;;;19.15
31921;BMP280;66485;52.128;4.436;2023-02-01T15:59:14;102000.31;;;19.17
31921;BMP280;66485;52.128;4.436;2023-02-01T16:01:40;102003.78;;;19.14
31921;BMP280;66485;52.128;4.436;2023-02-01T16:06:52;102012.72;;;19.04
31921;BMP280;66485;52.128;4.436;2023-02-01T16:09:21;102012.72;;;19.04
31921;BMP280;66485;52.128;4.436;2023-02-01T16:14:18;102015.44;;;18.93
31921;BMP280;66485;52.128;4.436;2023-02-01T16:16:44;102021.28;;;18.85
31921;BMP280;66485;52.128;4.436;2023-02-01T16:19:09;102017.00;;;18.80
31921;BMP280;66485;52.128;4.436;2023-02-01T16:21:34;102029.81;;;18.80
31921;BMP280;66485;52.128;4.436;2023-02-01T16:24:00;102030.56;;;18.84
31921;BMP280;66485;52.128;4.436;2023-02-01T16:26:32;102029.44;;;18.78
31921;BMP280;66485;52.128;4.436;2023-02-01T16:28:58;102024.00;;;18.74
31921;BMP280;66485;52.128;4.436;2023-02-01T16:31:28;102035.22;;;18.73
31921;BMP280;66485;52.128;4.436;2023-02-01T16:33:54;102024.75;;;18.61
31921;BMP280;66485;52.128;4.436;2023-02-01T16:36:20;102024.75;;;18.61
31921;BMP280;66485;52.128;4.436;2023-02-01T16:38:46;102027.47;;;18.68